Time;durP1;ratioP1;P1;durP2;ratioP2;P2;SDS_P1;SDS_P2;PMS_P1;PMS_P2;Temp;Humidity;BMP_temperature;BMP_pressure;BME280_temperature;BME280_humidity;BME280_pressure;Samples;Min_cycle;Max_cycle;Signal;HPM_P1;HPM_P2
2023/05/11 00:02:00;;;;;;;25.65;14.73;;;12.00;99.90;;;;;;5010412;28;20119;-53
2023/05/11 00:04:26;;;;;;;21.58;13.57;;;12.00;99.90;;;;;;5009934;28;20048;-55
2023/05/11 00:06:53;;;;;;;22.17;12.57;;;12.00;99.90;;;;;;5010128;28;20049;-55
2023/05/11 00:09:19;;;;;;;24.65;13.32;;;12.00;99.90;;;;;;5010344;28;20038;-55
2023/05/11 00:11:45;;;;;;;23.73;13.82;;;11.70;99.90;;;;;;5008685;28;20399;-55
2023/05/11 00:14:11;;;;;;;22.65;13.88;;;12.20;99.90;;;;;;5009912;28;20045;-55
2023/05/11 00:16:36;;;;;;;26.13;14.77;;;12.00;99.90;;;;;;5009858;28;20034;-55
2023/05/11 00:19:02;;;;;;;27.00;14.98;;;12.00;99.90;;;;;;5009650;28;20116;-55
2023/05/11 00:21:27;;;;;;;29.10;15.10;;;11.60;99.90;;;;;;5009908;28;20061;-55
2023/05/11 00:23:53;;;;;;;25.90;14.88;;;11.60;99.90;;;;;;5013210;28;20049;-55
2023/05/11 00:26:20;;;;;;;30.13;14.55;;;11.60;99.90;;;;;;5013247;28;20100;-55
2023/05/11 00:28:45;;;;;;;25.80;14.68;;;12.00;99.90;;;;;;5012853;28;20054;-55
2023/05/11 00:31:11;;;;;;;24.33;14.07;;;12.10;99.90;;;;;;5013432;28;20104;-55
2023/05/11 00:33:37;;;;;;;21.52;12.77;;;12.00;99.90;;;;;;5012166;28;20072;-55
2023/05/11 00:36:03;;;;;;;22.85;14.02;;;12.10;99.90;;;;;;5013445;28;20053;-55
2023/05/11 00:38:28;;;;;;;27.45;13.85;;;11.60;99.90;;;;;;5013242;28;20521;-55
2023/05/11 00:40:54;;;;;;;31.63;15.65;;;11.80;99.90;;;;;;5013513;28;20042;-55
2023/05/11 00:43:20;;;;;;;28.95;15.48;;;12.10;99.90;;;;;;5013327;28;20060;-55
2023/05/11 00:45:47;;;;;;;32.90;14.43;;;12.50;99.90;;;;;;5013013;28;20046;-55
2023/05/11 00:48:14;;;;;;;31.13;16.27;;;12.00;99.90;;;;;;5013338;28;20050;-55
2023/05/11 00:50:39;;;;;;;27.58;14.65;;;12.00;99.90;;;;;;5013089;28;20492;-55
2023/05/11 00:53:05;;;;;;;26.65;14.38;;;11.90;99.90;;;;;;5013022;28;20033;-55
2023/05/11 00:55:31;;;;;;;26.75;14.55;;;11.60;99.90;;;;;;5013203;28;20756;-55
2023/05/11 00:57:56;;;;;;;32.10;16.80;;;11.90;99.90;;;;;;5012741;28;20050;-55
2023/05/11 01:00:22;;;;;;;25.50;14.80;;;11.90;99.90;;;;;;5012743;28;20037;-55
2023/05/11 01:02:48;;;;;;;29.75;15.98;;;11.80;99.90;;;;;;5012809;28;20132;-54
2023/05/11 01:05:14;;;;;;;34.47;16.73;;;12.10;99.90;;;;;;5012331;28;20108;-54
2023/05/11 01:07:50;;;;;;;36.60;17.15;;;11.90;99.90;;;;;;5012570;28;20046;-55
2023/05/11 01:10:43;;;;;;;42.75;18.40;;;11.50;99.90;;;;;;5012434;28;20038;-55
2023/05/11 01:13:21;;;;;;;38.92;17.73;;;11.60;99.90;;;;;;5012810;28;20073;-55
2023/05/11 01:15:51;;;;;;;47.10;20.63;;;11.50;99.90;;;;;;5012583;28;20561;-55
2023/05/11 01:18:31;;;;;;;40.78;18.20;;;12.00;99.90;;;;;;5002057;28;20042;-55
2023/05/11 01:21:00;;;;;;;47.50;20.48;;;11.50;99.90;;;;;;4993135;28;20096;-55
2023/05/11 01:23:38;;;;;;;59.13;23.55;;;12.00;99.90;;;;;;4992541;28;20057;-55
2023/05/11 01:26:08;;;;;;;50.15;21.83;;;11.90;99.90;;;;;;4992815;28;20050;-54
2023/05/11 01:29:12;;;;;;;57.65;21.48;;;11.50;99.90;;;;;;4992376;28;20049;-54
2023/05/11 01:31:41;;;;;;;43.72;19.40;;;11.50;99.90;;;;;;4992569;28;20614;-55
2023/05/11 01:34:14;;;;;;;47.15;20.40;;;12.00;99.90;;;;;;4990260;28;20046;-55
2023/05/11 01:36:48;;;;;;;45.38;18.77;;;11.90;99.90;;;;;;4992941;28;20081;-55
2023/05/11 01:39:16;;;;;;;34.72;18.33;;;12.00;99.90;;;;;;4992885;28;20097;-55
2023/05/11 01:41:50;;;;;;;49.70;22.00;;;11.50;99.90;;;;;;4992592;28;20049;-55
2023/05/11 01:44:19;;;;;;;54.08;19.90;;;11.90;99.90;;;;;;4992839;28;20378;-55
2023/05/11 01:46:46;;;;;;;43.55;19.13;;;11.50;99.90;;;;;;4992811;28;20113;-55
2023/05/11 01:49:13;;;;;;;53.33;20.55;;;11.90;99.90;;;;;;4992704;28;20042;-55
2023/05/11 01:51:42;;;;;;;44.85;20.67;;;11.90;99.90;;;;;;4992772;28;20050;-55
2023/05/11 01:54:10;;;;;;;40.22;18.40;;;11.50;99.90;;;;;;4992339;28;20084;-55
2023/05/11 01:56:37;;;;;;;51.50;21.35;;;11.50;99.90;;;;;;4992724;28;20047;-55
2023/05/11 01:59:03;;;;;;;54.83;21.80;;;12.10;99.90;;;;;;4992487;28;20409;-55
2023/05/11 02:01:31;;;;;;;49.22;21.08;;;11.90;99.90;;;;;;4992774;28;20039;-55
2023/05/11 02:03:58;;;;;;;48.33;20.65;;;12.10;99.90;;;;;;4991970;28;20035;-55
2023/05/11 02:06:28;;;;;;;58.78;21.98;;;11.90;99.90;;;;;;4992324;28;20137;-55
2023/05/11 02:08:55;;;;;;;65.72;22.48;;;11.80;99.90;;;;;;4992106;28;20049;-55
2023/05/11 02:11:24;;;;;;;44.90;19.58;;;12.00;99.90;;;;;;4992397;28;20045;-54
2023/05/11 02:13:51;;;;;;;59.80;22.17;;;11.60;99.90;;;;;;4992238;28;20113;-54
2023/05/11 02:16:18;;;;;;;52.65;21.15;;;11.90;99.90;;;;;;4992020;28;20481;-55
2023/05/11 02:18:44;;;;;;;64.03;26.90;;;11.70;99.90;;;;;;5020783;28;20050;-55
2023/05/11 02:21:12;;;;;;;59.90;22.35;;;11.80;99.90;;;;;;5011614;28;20045;-54
2023/05/11 02:23:39;;;;;;;55.50;22.27;;;11.40;99.90;;;;;;5011627;28;20172;-55
2023/05/11 02:26:06;;;;;;;48.70;21.38;;;11.80;99.90;;;;;;5011438;28;20099;-54
2023/05/11 02:28:32;;;;;;;53.75;23.13;;;11.80;99.90;;;;;;5011361;28;20065;-55
2023/05/11 02:31:14;;;;;;;57.85;22.98;;;11.40;99.90;;;;;;5011520;28;20046;-53
2023/05/11 02:33:46;;;;;;;55.08;20.23;;;11.80;99.90;;;;;;5011742;28;20045;-55
2023/05/11 02:36:16;;;;;;;53.88;20.80;;;11.90;99.90;;;;;;5011614;28;20037;-54
2023/05/11 02:38:44;;;;;;;41.85;19.42;;;11.70;99.90;;;;;;5011449;28;20511;-54
2023/05/11 02:41:14;;;;;;;63.75;23.38;;;11.70;99.90;;;;;;5011638;28;20208;-55
2023/05/11 02:43:50;;;;;;;62.63;25.10;;;11.70;99.90;;;;;;5011314;28;20049;-54
2023/05/11 02:46:20;;;;;;;62.58;27.17;;;11.60;99.90;;;;;;5010573;28;20400;-54
2023/05/11 02:48:50;;;;;;;66.22;27.00;;;11.70;99.90;;;;;;5011332;28;20129;-55
2023/05/11 02:51:19;;;;;;;70.30;27.63;;;11.60;99.90;;;;;;5011249;28;20061;-54
2023/05/11 02:53:47;;;;;;;74.40;27.00;;;11.70;99.90;;;;;;5010722;28;20038;-54
2023/05/11 02:56:13;;;;;;;53.33;22.67;;;11.70;99.90;;;;;;5011229;28;20396;-54
2023/05/11 02:58:39;;;;;;;72.05;26.33;;;11.20;99.90;;;;;;5010650;28;20502;-54
2023/05/11 03:01:09;;;;;;;56.50;24.33;;;11.90;99.90;;;;;;5010930;28;20060;-55
2023/05/11 03:03:34;;;;;;;72.90;26.20;;;11.40;99.90;;;;;;5010788;28;20419;-54
2023/05/11 03:06:00;;;;;;;67.40;24.23;;;11.40;99.90;;;;;;5010439;28;20048;-55
2023/05/11 03:08:26;;;;;;;55.30;24.35;;;11.20;99.90;;;;;;5010749;28;20074;-55
2023/05/11 03:10:53;;;;;;;67.97;24.02;;;11.50;99.90;;;;;;5010642;28;20042;-55
2023/05/11 03:13:21;;;;;;;71.55;23.08;;;11.30;99.90;;;;;;5010768;28;20121;-55
2023/05/11 03:15:47;;;;;;;65.20;21.67;;;11.60;99.90;;;;;;5010694;28;20054;-55
2023/05/11 03:18:14;;;;;;;66.97;23.38;;;11.50;99.90;;;;;;5000732;28;20050;-55
2023/05/11 03:20:42;;;;;;;45.90;21.02;;;11.00;99.90;;;;;;4990792;28;20497;-54
2023/05/11 03:23:08;;;;;;;74.97;22.38;;;11.60;99.90;;;;;;4990840;28;20685;-54
2023/05/11 03:25:34;;;;;;;51.30;22.40;;;11.50;99.90;;;;;;4990709;28;20050;-54
2023/05/11 03:28:01;;;;;;;51.00;20.55;;;11.50;99.90;;;;;;4990594;28;20117;-53
2023/05/11 03:30:27;;;;;;;64.85;23.85;;;11.40;99.90;;;;;;4990997;28;20089;-53
2023/05/11 03:32:53;;;;;;;64.38;22.80;;;11.50;99.90;;;;;;4990762;28;20042;-54
2023/05/11 03:35:21;;;;;;;69.60;23.00;;;11.90;99.90;;;;;;4990674;28;20050;-54
2023/05/11 03:37:49;;;;;;;59.70;20.55;;;11.60;99.90;;;;;;4990818;28;20082;-54
2023/05/11 03:40:17;;;;;;;55.35;21.27;;;11.60;99.90;;;;;;4990589;28;20637;-54
2023/05/11 03:42:43;;;;;;;61.20;23.67;;;11.70;99.90;;;;;;5005705;28;20082;-54
2023/05/11 03:45:13;;;;;;;59.60;23.67;;;11.70;99.90;;;;;;4990679;28;20038;-54
2023/05/11 03:47:41;;;;;;;45.88;20.80;;;11.60;99.90;;;;;;4990667;28;20052;-55
2023/05/11 03:50:08;;;;;;;45.47;20.73;;;11.50;99.90;;;;;;4990744;28;20141;-54
2023/05/11 03:52:35;;;;;;;38.50;18.77;;;11.10;99.90;;;;;;4990414;28;20476;-54
2023/05/11 03:55:01;;;;;;;35.15;16.83;;;11.50;99.90;;;;;;4990270;28;20511;-54
2023/05/11 03:57:27;;;;;;;36.85;16.02;;;12.00;99.90;;;;;;4992160;28;20046;-53
2023/05/11 03:59:53;;;;;;;38.45;17.02;;;11.50;99.90;;;;;;4994416;28;20038;-54
2023/05/11 04:02:19;;;;;;;31.15;15.73;;;11.40;99.90;;;;;;4994201;28;20419;-55
2023/05/11 04:04:45;;;;;;;37.65;18.27;;;11.00;99.90;;;;;;4994028;28;20101;-54
2023/05/11 04:07:10;;;;;;;32.35;15.68;;;11.00;99.90;;;;;;4994498;28;20515;-54
2023/05/11 04:09:36;;;;;;;35.08;15.70;;;11.40;99.90;;;;;;4994013;28;20093;-54
2023/05/11 04:12:01;;;;;;;29.15;15.20;;;11.40;99.90;;;;;;4994421;28;20045;-54
2023/05/11 04:14:27;;;;;;;31.75;14.40;;;11.00;99.90;;;;;;4994216;28;20042;-55
2023/05/11 04:16:53;;;;;;;31.80;12.80;;;11.40;99.90;;;;;;4994254;28;20512;-55
2023/05/11 04:19:18;;;;;;;28.27;12.48;;;11.50;99.90;;;;;;5012407;28;20544;-54
2023/05/11 04:21:45;;;;;;;28.60;12.70;;;11.30;99.90;;;;;;5013234;28;20037;-54
2023/05/11 04:24:11;;;;;;;31.40;12.93;;;11.40;99.90;;;;;;5013101;28;20071;-53
2023/05/11 04:26:37;;;;;;;27.77;12.68;;;11.10;99.90;;;;;;5013393;28;20394;-54
2023/05/11 04:29:03;;;;;;;24.85;11.85;;;11.00;99.90;;;;;;5013076;28;20053;-54
2023/05/11 04:31:29;;;;;;;29.25;13.93;;;11.10;99.90;;;;;;5013237;28;20052;-54
2023/05/11 04:33:55;;;;;;;27.23;11.55;;;11.10;99.90;;;;;;5013590;28;20033;-54
2023/05/11 04:36:21;;;;;;;27.25;11.68;;;11.40;99.90;;;;;;5013523;28;20442;-54
2023/05/11 04:38:47;;;;;;;36.72;13.75;;;11.20;99.90;;;;;;5013285;28;20049;-55
2023/05/11 04:41:13;;;;;;;37.20;14.02;;;11.20;99.90;;;;;;5013628;28;20064;-54
2023/05/11 04:43:39;;;;;;;33.47;12.52;;;11.20;99.90;;;;;;5013779;28;20042;-54
2023/05/11 04:46:05;;;;;;;32.05;13.15;;;11.20;99.90;;;;;;5013489;28;20046;-53
2023/05/11 04:48:30;;;;;;;28.58;12.50;;;11.80;99.90;;;;;;5013754;28;20045;-54
2023/05/11 04:50:56;;;;;;;34.28;13.15;;;11.20;99.90;;;;;;5013355;28;20055;-53
2023/05/11 04:53:22;;;;;;;33.28;12.93;;;10.80;99.90;;;;;;5012939;28;20045;-54
2023/05/11 04:55:48;;;;;;;28.67;12.95;;;11.20;99.90;;;;;;5013282;28;20054;-54
2023/05/11 04:58:14;;;;;;;30.38;13.00;;;11.20;99.90;;;;;;5012879;28;20045;-54
2023/05/11 05:00:40;;;;;;;29.30;12.63;;;11.20;99.90;;;;;;5012791;28;20132;-52
2023/05/11 05:03:06;;;;;;;32.47;13.18;;;10.90;99.90;;;;;;5012834;28;20392;-53
2023/05/11 05:05:31;;;;;;;29.70;12.98;;;10.90;99.90;;;;;;5012298;28;20045;-53
2023/05/11 05:07:57;;;;;;;35.17;14.05;;;10.90;99.90;;;;;;5012199;28;20201;-52
2023/05/11 05:10:23;;;;;;;35.72;12.88;;;11.00;99.90;;;;;;5012736;28;20046;-54
2023/05/11 05:12:49;;;;;;;29.58;13.30;;;11.30;99.90;;;;;;5012657;28;20065;-54
2023/05/11 05:15:15;;;;;;;38.50;15.02;;;11.00;99.90;;;;;;5012576;28;20091;-54
2023/05/11 05:17:40;;;;;;;43.17;15.65;;;11.30;99.90;;;;;;5006886;28;20128;-54
2023/05/11 05:20:07;;;;;;;35.53;14.88;;;11.30;99.90;;;;;;4992843;28;20039;-54
2023/05/11 05:22:33;;;;;;;41.97;15.35;;;11.00;99.90;;;;;;4992981;28;20046;-52
2023/05/11 05:24:59;;;;;;;34.90;15.98;;;11.60;99.90;;;;;;4993235;28;20065;-53
2023/05/11 05:27:25;;;;;;;29.70;13.77;;;11.40;99.90;;;;;;4992953;28;20173;-54
2023/05/11 05:29:51;;;;;;;32.35;14.07;;;11.60;99.90;;;;;;4992980;28;20129;-54
2023/05/11 05:32:16;;;;;;;31.98;14.30;;;11.60;99.90;;;;;;4992448;28;20173;-54
2023/05/11 05:34:42;;;;;;;36.70;15.82;;;11.20;99.90;;;;;;4992572;28;20049;-54
2023/05/11 05:37:08;;;;;;;41.65;15.10;;;11.50;99.90;;;;;;4992534;28;20050;-53
2023/05/11 05:39:34;;;;;;;36.10;15.77;;;11.50;99.90;;;;;;4992729;28;20046;-54
2023/05/11 05:42:01;;;;;;;28.38;14.82;;;11.50;99.90;;;;;;4970446;28;20511;-52
2023/05/11 05:44:27;;;;;;;29.75;14.82;;;11.50;99.90;;;;;;4993575;28;20046;-58
2023/05/11 05:46:53;;;;;;;28.98;14.02;;;11.40;99.90;;;;;;5001167;28;20391;-49
2023/05/11 05:49:18;;;;;;;37.05;15.93;;;11.20;99.90;;;;;;5004823;28;20029;-55
2023/05/11 05:51:44;;;;;;;39.78;16.63;;;12.00;99.90;;;;;;4996354;28;20129;-56
2023/05/11 05:54:12;;;;;;;42.65;15.43;;;11.60;99.90;;;;;;5001377;28;20053;-56
2023/05/11 05:56:39;;;;;;;39.67;15.55;;;11.30;99.90;;;;;;5004521;28;20617;-55
2023/05/11 05:59:05;;;;;;;36.78;15.52;;;11.60;99.90;;;;;;5004388;28;20038;-52
2023/05/11 06:01:31;;;;;;;41.60;16.00;;;11.60;99.90;;;;;;5003539;28;20038;-56
2023/05/11 06:03:57;;;;;;;39.67;16.15;;;11.20;99.90;;;;;;5003794;28;20037;-58
2023/05/11 06:06:22;;;;;;;25.13;14.30;;;11.60;99.90;;;;;;5004006;28;20570;-57
2023/05/11 06:08:48;;;;;;;32.92;15.13;;;11.50;99.90;;;;;;5004097;28;20041;-55
2023/05/11 06:11:14;;;;;;;36.75;16.38;;;11.60;99.90;;;;;;5004227;28;20042;-51
2023/05/11 06:13:40;;;;;;;27.92;13.60;;;11.80;99.90;;;;;;5003945;28;20049;-49
2023/05/11 06:16:06;;;;;;;32.92;15.02;;;10.50;99.90;;;;;;5002705;28;20037;-58
2023/05/11 06:18:31;;;;;;;34.17;16.08;;;11.70;99.90;;;;;;5017587;28;20461;-58
2023/05/11 06:20:58;;;;;;;31.48;14.82;;;11.80;99.90;;;;;;5003220;28;20065;-59
2023/05/11 06:23:24;;;;;;;31.60;15.07;;;11.90;99.90;;;;;;5010563;28;20116;-62
2023/05/11 06:25:50;;;;;;;31.75;15.32;;;12.30;99.90;;;;;;5011033;28;20089;-62
2023/05/11 06:28:15;;;;;;;32.60;16.77;;;11.90;99.90;;;;;;5010939;28;20519;-62
2023/05/11 06:30:41;;;;;;;43.90;17.25;;;11.50;99.90;;;;;;5011370;28;20034;-62
2023/05/11 06:33:07;;;;;;;33.65;16.80;;;11.90;99.90;;;;;;5011299;28;20057;-62
2023/05/11 06:35:32;;;;;;;37.15;17.17;;;11.90;99.90;;;;;;5011153;28;20049;-62
2023/05/11 06:37:58;;;;;;;40.58;18.40;;;11.60;99.90;;;;;;5011150;28;20045;-62
2023/05/11 06:40:24;;;;;;;40.83;17.42;;;11.90;99.90;;;;;;5011062;28;20038;-61
2023/05/11 06:42:50;;;;;;;33.30;16.48;;;11.60;99.90;;;;;;5010922;28;20050;-62
2023/05/11 06:45:16;;;;;;;37.78;18.40;;;12.10;99.90;;;;;;5010847;28;20069;-61
2023/05/11 06:47:42;;;;;;;37.35;17.05;;;12.00;99.90;;;;;;5010659;28;20042;-61
2023/05/11 06:50:08;;;;;;;31.40;16.27;;;12.00;99.90;;;;;;5011147;28;20132;-60
2023/05/11 06:52:35;;;;;;;36.30;17.65;;;11.70;99.90;;;;;;5010916;28;20116;-60
2023/05/11 06:55:00;;;;;;;41.35;17.35;;;11.60;99.90;;;;;;5009681;28;20484;-61
2023/05/11 06:57:26;;;;;;;41.92;19.00;;;12.20;99.90;;;;;;5010937;28;20038;-61
2023/05/11 06:59:52;;;;;;;39.22;17.35;;;11.70;99.90;;;;;;5011021;28;20080;-60
2023/05/11 07:02:17;;;;;;;41.85;19.13;;;12.00;99.90;;;;;;5010398;28;20500;-60
2023/05/11 07:04:43;;;;;;;40.13;19.13;;;12.20;99.90;;;;;;5010519;28;20147;-60
2023/05/11 07:07:11;;;;;;;36.95;17.50;;;12.10;99.90;;;;;;5010746;28;20099;-60
2023/05/11 07:09:37;;;;;;;43.75;19.13;;;12.00;99.90;;;;;;5010839;28;20053;-61
2023/05/11 07:12:03;;;;;;;39.63;17.50;;;12.00;99.90;;;;;;5010505;28;20044;-60
2023/05/11 07:14:28;;;;;;;35.80;17.10;;;11.70;99.90;;;;;;5010778;28;20054;-60
2023/05/11 07:16:54;;;;;;;32.88;17.08;;;12.00;99.90;;;;;;5010639;28;20191;-61
2023/05/11 07:19:20;;;;;;;32.33;16.50;;;12.10;99.90;;;;;;5010488;28;20041;-60
2023/05/11 07:21:45;;;;;;;35.67;17.58;;;12.20;99.90;;;;;;5010367;28;20077;-60
2023/05/11 07:24:12;;;;;;;28.13;15.25;;;11.70;99.90;;;;;;5010058;28;20038;-61
2023/05/11 07:26:37;;;;;;;28.25;15.30;;;12.30;99.90;;;;;;5010229;28;20046;-61
2023/05/11 07:29:03;;;;;;;26.25;14.20;;;12.20;99.90;;;;;;5009952;28;20065;-61
2023/05/11 07:31:29;;;;;;;25.30;13.50;;;11.90;99.90;;;;;;5009945;28;20042;-61
2023/05/11 07:33:55;;;;;;;27.80;14.90;;;11.90;99.90;;;;;;5013891;28;20484;-61
2023/05/11 07:36:21;;;;;;;25.42;14.32;;;12.40;99.90;;;;;;5013918;28;20058;-60
2023/05/11 07:38:46;;;;;;;27.80;14.90;;;12.00;99.90;;;;;;5014041;28;20044;-61
2023/05/11 07:41:12;;;;;;;28.58;14.57;;;12.30;99.90;;;;;;5014197;28;20095;-61
2023/05/11 07:43:38;;;;;;;28.75;14.65;;;12.10;99.90;;;;;;5013755;28;20111;-61
2023/05/11 07:46:04;;;;;;;27.45;15.27;;;12.70;99.90;;;;;;5013794;28;20164;-60
2023/05/11 07:48:29;;;;;;;29.15;14.93;;;12.10;99.90;;;;;;5014176;28;20046;-61
2023/05/11 07:50:55;;;;;;;26.58;15.48;;;12.30;99.90;;;;;;5014111;28;20462;-61
2023/05/11 07:53:21;;;;;;;29.40;15.52;;;12.50;99.90;;;;;;5013801;28;20045;-61
2023/05/11 07:55:46;;;;;;;28.42;15.25;;;12.00;99.90;;;;;;5013832;28;20042;-61
2023/05/11 07:58:12;;;;;;;24.67;15.60;;;12.20;99.90;;;;;;5013584;28;20042;-61
2023/05/11 08:00:38;;;;;;;23.65;13.70;;;12.60;99.90;;;;;;5013668;28;20050;-61
2023/05/11 08:03:03;;;;;;;27.45;16.75;;;12.30;99.90;;;;;;5012828;28;20054;-61
2023/05/11 08:05:31;;;;;;;26.80;15.88;;;12.80;99.90;;;;;;5012617;28;20045;-61
2023/05/11 08:07:57;;;;;;;30.15;17.27;;;12.50;99.90;;;;;;5012351;28;20053;-61
2023/05/11 08:10:23;;;;;;;27.73;16.50;;;12.70;99.90;;;;;;5012758;28;20038;-61
2023/05/11 08:12:49;;;;;;;28.15;15.52;;;12.70;99.90;;;;;;5013376;28;20739;-61
2023/05/11 08:15:14;;;;;;;27.35;16.60;;;12.60;99.90;;;;;;5013166;28;20069;-61
2023/05/11 08:17:41;;;;;;;28.85;16.40;;;12.80;99.90;;;;;;5008286;28;20034;-61
2023/05/11 08:20:08;;;;;;;26.00;16.00;;;12.90;99.90;;;;;;4994260;28;20053;-61
2023/05/11 08:22:34;;;;;;;22.55;14.38;;;13.00;99.90;;;;;;4992279;28;20038;-61
2023/05/11 08:24:59;;;;;;;23.27;13.57;;;13.00;99.90;;;;;;4993888;28;20118;-61
2023/05/11 08:27:25;;;;;;;21.17;13.63;;;13.10;99.90;;;;;;4993611;28;20117;-61
2023/05/11 08:29:51;;;;;;;23.23;13.35;;;13.10;99.90;;;;;;4993588;28;20082;-60
2023/05/11 08:32:16;;;;;;;20.35;13.80;;;13.20;99.90;;;;;;4994035;28;20042;-60
2023/05/11 08:34:43;;;;;;;20.65;13.02;;;13.20;99.90;;;;;;4993566;28;20048;-60
2023/05/11 08:37:09;;;;;;;20.30;12.88;;;13.20;99.90;;;;;;4993631;28;20495;-60
2023/05/11 08:39:34;;;;;;;19.30;12.30;;;13.30;99.90;;;;;;4993748;28;20042;-60
2023/05/11 08:42:04;;;;;;;18.88;12.88;;;13.40;99.90;;;;;;4993490;28;20128;-60
2023/05/11 08:44:32;;;;;;;19.65;12.68;;;13.30;99.90;;;;;;4992866;28;20046;-60
2023/05/11 08:46:59;;;;;;;16.92;11.45;;;13.50;99.90;;;;;;4993633;28;20259;-61
2023/05/11 08:49:24;;;;;;;18.30;11.73;;;13.40;99.90;;;;;;4993316;28;20388;-60
2023/05/11 08:51:50;;;;;;;16.13;10.95;;;13.40;99.90;;;;;;4992528;28;20049;-60
2023/05/11 08:54:16;;;;;;;18.20;12.13;;;13.40;99.90;;;;;;4992452;28;20049;-60
2023/05/11 08:56:43;;;;;;;18.85;12.70;;;13.50;99.90;;;;;;4992787;28;20066;-60
2023/05/11 08:59:11;;;;;;;16.63;11.25;;;13.50;99.90;;;;;;4992055;28;20038;-60
2023/05/11 09:01:39;;;;;;;17.77;11.07;;;13.70;99.90;;;;;;4993412;28;20046;-59
2023/05/11 09:04:06;;;;;;;19.60;11.60;;;13.50;99.90;;;;;;4992993;28;20042;-60
2023/05/11 09:06:32;;;;;;;16.15;10.93;;;13.50;99.90;;;;;;4992979;28;20413;-59
2023/05/11 09:08:59;;;;;;;15.98;11.65;;;13.40;99.90;;;;;;4993200;28;20046;-60
2023/05/11 09:11:29;;;;;;;17.25;10.55;;;13.40;99.90;;;;;;4993091;28;20042;-59
2023/05/11 09:13:55;;;;;;;15.98;10.68;;;13.40;99.90;;;;;;4993399;28;20664;-59
2023/05/11 09:16:21;;;;;;;15.13;10.25;;;13.70;99.90;;;;;;4993073;28;20050;-60
2023/05/11 09:18:48;;;;;;;15.07;10.55;;;13.50;99.90;;;;;;5006901;28;20084;-59
2023/05/11 09:21:14;;;;;;;15.80;11.32;;;13.50;99.90;;;;;;5012377;28;20103;-59
2023/05/11 09:23:39;;;;;;;14.98;10.18;;;13.60;99.90;;;;;;5012213;28;20053;-59
2023/05/11 09:26:16;;;;;;;16.13;10.50;;;13.60;99.90;;;;;;5012261;28;20042;-59
2023/05/11 09:28:58;;;;;;;13.10;9.68;;;14.00;99.90;;;;;;5012087;28;20081;-59
2023/05/11 09:31:43;;;;;;;12.45;9.57;;;13.70;99.90;;;;;;5012316;28;20046;-60
2023/05/11 09:34:13;;;;;;;13.10;9.93;;;13.80;99.90;;;;;;5012262;28;20073;-59
2023/05/11 09:36:43;;;;;;;13.48;9.45;;;13.80;99.90;;;;;;5011895;28;20084;-59
2023/05/11 09:39:09;;;;;;;11.63;8.80;;;13.80;99.90;;;;;;5012149;28;20046;-59
2023/05/11 09:41:35;;;;;;;15.38;10.38;;;14.00;99.90;;;;;;5012123;28;20064;-59
2023/05/11 09:44:14;;;;;;;12.02;9.05;;;13.90;99.90;;;;;;5012262;28;20044;-59
2023/05/11 09:46:42;;;;;;;12.35;8.63;;;13.90;99.90;;;;;;5012183;28;20128;-60
2023/05/11 09:49:08;;;;;;;12.07;9.15;;;14.10;99.90;;;;;;5011606;28;20084;-59
2023/05/11 09:51:36;;;;;;;14.75;10.25;;;14.10;99.90;;;;;;5012139;28;20042;-59
2023/05/11 09:54:21;;;;;;;14.13;10.13;;;14.20;99.90;;;;;;5010669;28;20077;-59
2023/05/11 09:57:01;;;;;;;13.80;10.23;;;14.10;99.90;;;;;;5010546;28;20049;-60
2023/05/11 09:59:44;;;;;;;14.85;11.93;;;14.20;99.90;;;;;;5010600;28;20475;-60
2023/05/11 10:02:24;;;;;;;17.90;14.18;;;14.20;99.90;;;;;;5010500;28;20038;-59
2023/05/11 10:04:55;;;;;;;16.15;12.80;;;14.20;99.90;;;;;;5010057;28;20041;-59
2023/05/11 10:07:31;;;;;;;18.20;14.43;;;14.20;99.90;;;;;;5010732;28;20053;-60
2023/05/11 10:10:08;;;;;;;19.40;14.57;;;14.20;99.90;;;;;;5011481;28;20608;-60
2023/05/11 10:12:37;;;;;;;19.88;14.88;;;14.20;99.90;;;;;;5011929;28;20069;-59
2023/05/11 10:15:10;;;;;;;19.95;15.38;;;14.20;99.90;;;;;;5011779;28;20108;-60
2023/05/11 10:17:36;;;;;;;22.23;15.48;;;14.20;99.90;;;;;;5007013;28;20481;-60
2023/05/11 10:20:03;;;;;;;20.98;14.65;;;14.30;99.90;;;;;;4991949;28;20385;-59
2023/05/11 10:22:29;;;;;;;18.75;13.80;;;14.30;99.90;;;;;;4992014;28;20038;-60
2023/05/11 10:24:56;;;;;;;18.35;13.48;;;14.50;99.90;;;;;;4991839;28;20046;-59
2023/05/11 10:27:23;;;;;;;16.58;13.80;;;14.30;99.90;;;;;;4991683;28;20098;-59
2023/05/11 10:29:49;;;;;;;17.23;12.98;;;14.40;99.90;;;;;;4991278;28;20062;-60
2023/05/11 10:32:19;;;;;;;16.67;12.82;;;14.40;99.90;;;;;;4991499;28;20034;-59
2023/05/11 10:34:46;;;;;;;21.50;13.23;;;14.40;99.90;;;;;;4991233;28;20396;-59
2023/05/11 10:37:14;;;;;;;14.20;11.40;;;14.40;99.90;;;;;;4991427;28;20050;-59
2023/05/11 10:39:40;;;;;;;16.27;11.45;;;14.50;99.90;;;;;;4991206;28;20046;-59
2023/05/11 10:42:36;;;;;;;16.90;11.77;;;14.50;99.90;;;;;;4991852;28;20060;-59
2023/05/11 10:45:20;;;;;;;12.05;9.63;;;14.50;99.90;;;;;;4991111;28;20069;-59
2023/05/11 10:48:23;;;;;;;13.10;10.48;;;14.70;99.90;;;;;;4991399;28;20043;-59
2023/05/11 10:51:14;;;;;;;13.10;9.75;;;14.70;99.90;;;;;;4991305;28;20827;-59
2023/05/11 10:53:42;;;;;;;11.40;8.98;;;14.70;99.90;;;;;;4991014;28;20050;-59
2023/05/11 10:56:48;;;;;;;11.05;9.07;;;14.80;99.90;;;;;;4991195;28;20046;-59
2023/05/11 10:59:41;;;;;;;12.02;9.20;;;14.90;99.90;;;;;;4991123;28;20074;-59
2023/05/11 11:02:07;;;;;;;9.68;7.65;;;15.00;99.90;;;;;;4991110;28;20053;-59
2023/05/11 11:04:45;;;;;;;11.52;7.95;;;15.10;99.90;;;;;;4990646;28;20050;-60
2023/05/11 11:07:16;;;;;;;9.50;7.97;;;15.20;99.90;;;;;;4990847;28;20065;-60
2023/05/11 11:09:59;;;;;;;11.32;9.07;;;15.30;99.90;;;;;;4990952;28;20201;-59
2023/05/11 11:12:26;;;;;;;10.38;7.47;;;15.30;99.90;;;;;;4990976;28;20066;-59
2023/05/11 11:15:05;;;;;;;10.75;7.90;;;15.40;99.90;;;;;;4990850;28;20050;-59
2023/05/11 11:17:35;;;;;;;11.63;8.13;;;15.50;99.90;;;;;;4994871;28;20044;-59
2023/05/11 11:20:07;;;;;;;10.80;7.90;;;15.60;99.90;;;;;;5010766;28;20037;-59
2023/05/11 11:22:40;;;;;;;8.27;6.53;;;15.70;99.90;;;;;;5010643;28;20046;-59
2023/05/11 11:25:10;;;;;;;9.30;6.55;;;15.80;99.90;;;;;;5010130;28;20072;-60
2023/05/11 11:27:48;;;;;;;7.90;6.15;;;15.90;99.90;;;;;;5008865;28;20507;-59
2023/05/11 11:30:21;;;;;;;7.47;6.00;;;16.00;99.90;;;;;;5010148;28;20100;-60
2023/05/11 11:32:52;;;;;;;9.40;7.45;;;15.90;99.90;;;;;;5010201;28;20042;-59
2023/05/11 11:35:46;;;;;;;8.45;6.60;;;15.90;99.90;;;;;;5004477;28;20702;-59
2023/05/11 11:38:19;;;;;;;8.35;6.57;;;16.00;99.90;;;;;;5003235;28;20577;-59
2023/05/11 11:40:46;;;;;;;9.60;6.80;;;16.00;99.90;;;;;;5003494;28;20109;-59
2023/05/11 11:43:13;;;;;;;9.68;6.50;;;16.00;99.90;;;;;;5004089;28;20034;-59
2023/05/11 11:45:55;;;;;;;7.63;6.30;;;16.00;99.90;;;;;;5003832;28;20503;-59
2023/05/11 11:48:28;;;;;;;8.10;6.65;;;16.00;99.90;;;;;;5004162;28;20037;-59
2023/05/11 11:51:07;;;;;;;7.40;5.97;;;16.00;99.90;;;;;;5004175;28;20038;-59
2023/05/11 11:53:45;;;;;;;9.93;6.28;;;16.00;99.90;;;;;;5004272;28;20184;-59
2023/05/11 11:56:13;;;;;;;9.98;6.95;;;16.00;99.90;;;;;;5002429;28;20046;-59
2023/05/11 11:58:39;;;;;;;7.43;6.22;;;16.00;99.90;;;;;;5003212;28;20476;-58
2023/05/11 12:01:15;;;;;;;9.70;6.75;;;16.00;99.90;;;;;;5003731;28;20045;-58
2023/05/11 12:03:43;;;;;;;9.10;6.10;;;16.00;99.90;;;;;;5003943;28;20042;-58
2023/05/11 12:06:10;;;;;;;6.82;4.82;;;16.00;99.90;;;;;;5006857;28;20790;-60
2023/05/11 12:08:37;;;;;;;7.15;4.70;;;16.00;99.90;;;;;;5010371;28;20042;-59
2023/05/11 12:11:03;;;;;;;5.75;3.88;;;16.10;99.90;;;;;;5010320;28;20445;-58
2023/05/11 12:13:30;;;;;;;6.20;4.00;;;16.00;99.90;;;;;;5010344;28;20125;-59
2023/05/11 12:16:15;;;;;;;6.28;4.07;;;16.00;99.90;;;;;;5010278;28;20046;-59
2023/05/11 12:18:51;;;;;;;6.85;3.75;;;16.00;99.90;;;;;;4998147;28;20042;-59
2023/05/11 12:21:21;;;;;;;5.30;3.58;;;16.00;99.90;;;;;;4994215;28;20339;-59
2023/05/11 12:23:58;;;;;;;4.50;2.90;;;16.00;99.90;;;;;;4994305;28;20050;-60
2023/05/11 12:26:26;;;;;;;4.07;3.00;;;16.00;99.90;;;;;;4994006;28;20057;-60
2023/05/11 12:29:12;;;;;;;6.28;3.63;;;16.00;99.90;;;;;;4993728;28;20077;-59
2023/05/11 12:31:39;;;;;;;4.43;3.05;;;16.00;99.90;;;;;;4993631;28;20042;-60
2023/05/11 12:34:04;;;;;;;4.22;2.28;;;16.00;99.90;;;;;;4994209;28;20046;-60
2023/05/11 12:36:31;;;;;;;3.85;2.45;;;16.00;99.90;;;;;;4993600;28;20042;-59
2023/05/11 12:38:58;;;;;;;4.55;2.30;;;16.00;99.90;;;;;;4993928;28;20129;-60